Time;durP1;ratioP1;P1;durP2;ratioP2;P2;SDS_P1;SDS_P2;PMS_P1;PMS_P2;Temp;Humidity;BMP_temperature;BMP_pressure;BME280_temperature;BME280_humidity;BME280_pressure;Samples;Min_cycle;Max_cycle;Signal;HPM_P1;HPM_P2
2021/03/18 00:00:31;;;;;;;1.17;1.02;;;;;;;4.22;100.00;96741.50;5016338;28;20095;-81
2021/03/18 00:02:57;;;;;;;2.15;1.80;;;;;;;4.25;100.00;96740.47;5000133;28;20041;-82
2021/03/18 00:05:23;;;;;;;1.02;1.02;;;;;;;4.14;100.00;96737.53;5000254;28;20578;-81
2021/03/18 00:07:48;;;;;;;2.35;1.38;;;;;;;4.23;100.00;96742.34;5016822;28;20037;-82
2021/03/18 00:10:15;;;;;;;1.33;0.82;;;;;;;4.23;100.00;96742.34;5016640;28;20033;-80
2021/03/18 00:12:40;;;;;;;3.50;1.17;;;;;;;4.27;100.00;96743.94;5016397;28;20100;-82
2021/03/18 00:15:09;;;;;;;2.35;2.15;;;;;;;4.26;100.00;96745.72;4999957;28;20136;-82
2021/03/18 00:17:34;;;;;;;3.83;1.88;;;;;;;4.14;100.00;96738.38;5000108;28;20022;-81
2021/03/18 00:20:01;;;;;;;0.52;0.43;;;;;;;4.11;100.00;96743.81;5000005;28;20087;-81
2021/03/18 00:22:27;;;;;;;2.58;1.52;;;;;;;4.16;100.00;96740.94;5016139;28;20041;-82
2021/03/18 00:24:52;;;;;;;1.08;1.00;;;;;;;4.10;100.00;96735.94;4999998;28;20053;-81
2021/03/18 00:27:18;;;;;;;0.43;0.43;;;;;;;4.02;100.00;96732.84;4999732;28;20481;-81
2021/03/18 00:29:43;;;;;;;0.65;0.65;;;;;;;4.01;100.00;96736.41;4999823;28;20024;-81
2021/03/18 00:32:09;;;;;;;0.30;0.30;;;;;;;3.97;100.00;96726.94;5000039;28;20409;-81
2021/03/18 00:34:35;;;;;;;0.30;0.30;;;;;;;4.02;100.00;96738.13;4992087;28;20401;-81
2021/03/18 00:37:00;;;;;;;0.45;0.45;;;;;;;4.09;100.00;96734.25;4999535;28;20029;-82
2021/03/18 00:39:26;;;;;;;1.23;1.00;;;;;;;4.01;100.00;96724.03;4999336;28;20033;-81
2021/03/18 00:41:51;;;;;;;1.40;0.93;;;;;;;4.05;100.00;96737.97;4999630;28;20032;-81
2021/03/18 00:44:17;;;;;;;1.75;1.35;;;;;;;4.11;100.00;96732.38;5015724;28;20029;-81
2021/03/18 00:46:43;;;;;;;3.17;1.40;;;;;;;4.08;100.00;96727.25;4999037;28;20053;-81
2021/03/18 00:49:08;;;;;;;1.65;1.15;;;;;;;4.15;100.00;96736.59;4999441;28;20038;-81
2021/03/18 00:51:34;;;;;;;0.77;0.77;;;;;;;4.21;100.00;96739.81;4999376;28;20033;-81
2021/03/18 00:53:59;;;;;;;3.20;1.65;;;;;;;4.23;100.00;96742.34;5015824;28;20382;-81
2021/03/18 00:56:25;;;;;;;2.05;1.77;;;;;;;4.21;100.00;96738.94;5015698;28;20036;-81
2021/03/18 00:58:51;;;;;;;1.08;1.00;;;;;;;4.20;100.00;96740.72;5015749;28;20033;-81
2021/03/18 01:01:23;;;;;;;5.32;1.15;;;;;;;4.20;100.00;96731.91;4999270;28;20037;-80
2021/03/18 01:03:48;;;;;;;3.78;1.75;;;;;;;4.29;100.00;96748.19;5015924;28;20025;-81
2021/03/18 01:06:19;;;;;;;0.85;0.85;;;;;;;4.34;100.00;96746.16;4999259;28;20037;-81
2021/03/18 01:08:46;;;;;;;2.90;1.52;;;;;;;4.21;100.00;96731.88;5015072;28;20068;-81
2021/03/18 01:11:13;;;;;;;1.15;1.05;;;;;;;4.23;100.00;96745.00;4999521;28;20030;-81
2021/03/18 01:13:42;;;;;;;1.05;1.00;;;;;;;4.26;100.00;96732.47;4999018;28;20068;-81
2021/03/18 01:16:15;;;;;;;0.60;0.60;;;;;;;4.32;100.00;96733.94;4999226;28;20037;-81
2021/03/18 01:18:45;;;;;;;1.65;1.55;;;;;;;4.33;100.00;96733.03;4999006;28;20029;-81
2021/03/18 01:21:11;;;;;;;1.33;1.23;;;;;;;4.30;100.00;96728.75;4998906;28;20120;-80
2021/03/18 01:23:37;;;;;;;2.88;1.67;;;;;;;4.27;100.00;96730.69;5014907;28;20128;-81
2021/03/18 01:26:05;;;;;;;2.75;1.27;;;;;;;4.24;100.00;96729.06;4998853;28;20473;-81
2021/03/18 01:28:30;;;;;;;1.70;1.60;;;;;;;4.29;100.00;96742.91;4998588;28;20056;-81
2021/03/18 01:30:56;;;;;;;4.55;1.52;;;;;;;4.27;100.00;96741.28;5015120;28;20108;-81
2021/03/18 01:33:22;;;;;;;1.65;1.02;;;;;;;4.23;100.00;96729.13;4998466;28;20488;-82
2021/03/18 01:35:48;;;;;;;1.73;1.63;;;;;;;4.35;100.00;96752.31;5032587;28;20477;-81
2021/03/18 01:38:14;;;;;;;0.63;0.63;;;;;;;4.32;100.00;96749.84;4998806;28;20033;-82
2021/03/18 01:40:39;;;;;;;0.82;0.82;;;;;;;4.28;100.00;96750.91;4998456;28;20590;-81
2021/03/18 01:43:05;;;;;;;1.92;1.40;;;;;;;4.25;100.00;96748.41;5015237;28;20033;-82
2021/03/18 01:45:30;;;;;;;3.08;1.45;;;;;;;4.20;100.00;96743.38;4998226;28;20076;-81
2021/03/18 01:47:56;;;;;;;0.57;0.57;;;;;;;4.25;100.00;96751.06;5004658;28;20084;-81
2021/03/18 01:50:25;;;;;;;2.42;2.22;;;;;;;4.27;100.00;96754.50;5011388;28;20072;-80
2021/03/18 01:52:51;;;;;;;4.55;1.20;;;;;;;4.34;100.00;96751.47;4998038;28;20037;-81
2021/03/18 01:55:31;;;;;;;1.75;1.55;;;;;;;4.34;100.00;96758.53;4998250;28;20041;-82
2021/03/18 01:57:57;;;;;;;3.10;1.70;;;;;;;4.29;100.00;96752.63;4998047;28;20410;-82
2021/03/18 02:00:24;;;;;;;2.53;1.98;;;;;;;4.30;100.00;96765.81;4998157;28;20029;-82
2021/03/18 02:02:50;;;;;;;2.90;1.75;;;;;;;4.29;100.00;96752.63;4998089;28;20099;-81
2021/03/18 02:05:16;;;;;;;0.98;0.90;;;;;;;4.30;100.00;96754.34;5014907;28;20029;-81
2021/03/18 02:07:41;;;;;;;2.40;1.80;;;;;;;4.19;100.00;96761.94;4998328;28;20124;-81
2021/03/18 02:10:09;;;;;;;1.15;1.05;;;;;;;4.17;100.00;96763.81;5014425;28;20490;-81
2021/03/18 02:12:35;;;;;;;4.22;1.45;;;;;;;4.18;100.00;96760.25;4997792;28;20057;-81
2021/03/18 02:15:02;;;;;;;0.68;0.63;;;;;;;4.23;100.00;96758.22;4997859;28;20086;-81
2021/03/18 02:17:35;;;;;;;0.85;0.85;;;;;;;4.32;100.00;96763.06;5014071;28;20029;-82
2021/03/18 02:20:36;;;;;;;0.77;0.77;;;;;;;4.34;97.88;96772.63;4997090;28;20025;-81
2021/03/18 02:23:38;;;;;;;0.15;0.15;;;;;;;4.22;97.63;96769.75;5017794;28;20049;-81
2021/03/18 02:26:28;;;;;;;0.38;0.38;;;;;;;4.16;98.19;96775.34;5025393;28;20025;-80
2021/03/18 02:28:53;;;;;;;0.43;0.43;;;;;;;4.19;98.21;96777.84;5023621;28;20042;-80
2021/03/18 02:31:32;;;;;;;2.08;1.15;;;;;;;4.07;97.34;96767.84;5014082;28;20087;-81
2021/03/18 02:34:03;;;;;;;0.30;0.30;;;;;;;4.13;97.31;96783.41;5013766;28;20056;-81
2021/03/18 02:36:34;;;;;;;4.80;1.58;;;;;;;4.11;98.73;96774.72;4997393;28;20520;-80
2021/03/18 02:39:04;;;;;;;0.45;0.45;;;;;;;4.19;97.53;96767.25;4997397;28;20087;-81
2021/03/18 02:41:34;;;;;;;1.05;1.02;;;;;;;4.20;94.60;96763.69;4997272;28;20025;-79
2021/03/18 02:44:04;;;;;;;0.32;0.32;;;;;;;4.33;92.90;96776.25;5014025;28;20026;-80
2021/03/18 02:46:33;;;;;;;1.45;1.25;;;;;;;4.25;92.67;96761.66;4997339;28;20413;-80
2021/03/18 02:49:01;;;;;;;0.30;0.30;;;;;;;4.27;92.87;96770.38;5013756;28;20060;-80
2021/03/18 02:51:27;;;;;;;0.80;0.80;;;;;;;4.24;92.82;96775.84;4997095;28;20037;-80
2021/03/18 02:53:53;;;;;;;0.65;0.65;;;;;;;4.16;92.94;96776.19;4997072;28;20409;-80
2021/03/18 02:56:20;;;;;;;1.67;1.17;;;;;;;4.26;93.47;96773.97;4997130;28;20038;-80
2021/03/18 02:58:50;;;;;;;2.47;0.80;;;;;;;4.24;93.65;96770.53;4997063;28;20379;-79
2021/03/18 03:01:15;;;;;;;0.43;0.43;;;;;;;4.32;93.79;96776.31;4997160;28;20025;-82
2021/03/18 03:03:43;;;;;;;0.20;0.20;;;;;;;4.32;92.84;96777.16;4996860;28;20033;-82
2021/03/18 03:06:09;;;;;;;0.20;0.20;;;;;;;4.35;93.43;96774.38;4989288;28;20037;-82
2021/03/18 03:08:36;;;;;;;1.17;0.93;;;;;;;4.35;92.56;96770.84;4996927;28;20112;-81
2021/03/18 03:11:03;;;;;;;1.45;0.70;;;;;;;4.36;92.11;96780.53;4997368;28;20519;-82
2021/03/18 03:13:32;;;;;;;0.25;0.25;;;;;;;4.37;92.72;96771.63;5013638;28;20033;-82
2021/03/18 03:16:00;;;;;;;0.45;0.45;;;;;;;4.39;94.67;96785.66;4997191;28;20066;-82
2021/03/18 03:18:27;;;;;;;0.93;0.80;;;;;;;4.39;94.84;96775.06;5013638;28;20065;-80
2021/03/18 03:20:53;;;;;;;2.25;1.00;;;;;;;4.45;94.72;96782.72;4996965;28;20381;-80
2021/03/18 03:23:21;;;;;;;0.50;0.50;;;;;;;4.49;93.63;96786.06;4997310;28;20477;-80
2021/03/18 03:25:47;;;;;;;1.48;1.38;;;;;;;4.45;93.05;96777.41;4997020;28;20040;-80
2021/03/18 03:28:14;;;;;;;0.65;0.65;;;;;;;4.56;93.25;96788.31;4996987;28;20026;-80
2021/03/18 03:30:39;;;;;;;0.43;0.43;;;;;;;4.62;92.85;96797.72;4998376;28;20068;-80
2021/03/18 03:33:06;;;;;;;0.82;0.80;;;;;;;4.63;92.78;96799.44;5017112;28;20446;-80
2021/03/18 03:35:32;;;;;;;0.50;0.50;;;;;;;4.67;94.30;96796.59;5017299;28;20029;-80
2021/03/18 03:37:58;;;;;;;0.77;0.77;;;;;;;4.64;96.02;96793.22;5000625;28;20509;-80
2021/03/18 03:40:24;;;;;;;1.63;1.50;;;;;;;4.68;96.20;96805.34;5000820;28;20521;-80
2021/03/18 03:42:50;;;;;;;3.33;0.77;;;;;;;4.57;96.58;96790.03;5034719;28;20057;-80
2021/03/18 03:45:16;;;;;;;1.08;1.08;;;;;;;4.62;96.13;96801.22;5034927;28;20429;-80
2021/03/18 03:47:43;;;;;;;0.63;0.50;;;;;;;4.58;97.06;96799.69;5000443;28;20056;-80
2021/03/18 03:50:13;;;;;;;1.35;1.25;;;;;;;4.54;97.72;96795.47;5000538;28;20481;-80
2021/03/18 03:52:44;;;;;;;1.80;1.30;;;;;;;4.58;97.66;96804.13;5017085;28;20052;-80
2021/03/18 03:55:28;;;;;;;0.40;0.40;;;;;;;4.58;97.36;96805.00;5000454;28;20107;-80
2021/03/18 03:58:20;;;;;;;0.88;0.88;;;;;;;4.51;98.04;96802.72;5016438;28;20037;-81
2021/03/18 04:00:47;;;;;;;2.28;1.42;;;;;;;4.54;99.06;96795.47;5017188;28;20029;-80
2021/03/18 04:03:13;;;;;;;2.63;2.10;;;;;;;4.59;98.75;96811.97;5000624;28;20041;-81
2021/03/18 04:05:44;;;;;;;4.05;1.70;;;;;;;4.48;98.63;96811.69;5000216;28;20051;-81
2021/03/18 04:08:12;;;;;;;0.80;0.80;;;;;;;4.51;97.89;96800.94;4992719;28;20397;-81
2021/03/18 04:10:40;;;;;;;0.75;0.75;;;;;;;4.56;95.64;96804.19;5016781;28;20025;-81
2021/03/18 04:13:06;;;;;;;0.40;0.40;;;;;;;4.57;96.75;96805.91;5000262;28;20056;-80
2021/03/18 04:15:33;;;;;;;0.68;0.68;;;;;;;4.54;95.87;96811.38;5016761;28;20509;-81
2021/03/18 04:18:01;;;;;;;0.65;0.65;;;;;;;4.56;96.58;96817.44;5000316;28;20103;-80
2021/03/18 04:20:27;;;;;;;19.05;11.32;;;;;;;4.48;97.20;96808.16;4999975;28;20018;-81
2021/03/18 04:22:54;;;;;;;22.35;11.55;;;;;;;4.46;97.22;96815.34;5000256;28;20056;-81
2021/03/18 04:25:21;;;;;;;22.65;10.60;;;;;;;4.50;97.25;96811.59;5000712;28;20025;-81
2021/03/18 04:27:47;;;;;;;17.98;10.90;;;;;;;4.51;96.73;96808.88;5000476;28;20029;-80
2021/03/18 04:30:14;;;;;;;17.35;10.00;;;;;;;4.63;97.13;96826.78;4999921;28;20025;-81
2021/03/18 04:32:41;;;;;;;15.93;10.20;;;;;;;4.63;95.98;96824.16;4999833;28;20021;-81
2021/03/18 04:35:08;;;;;;;17.98;10.13;;;;;;;4.61;95.53;96823.38;5016120;28;20036;-81
2021/03/18 04:37:35;;;;;;;19.27;11.02;;;;;;;4.71;95.84;96829.91;4999656;28;20508;-81
2021/03/18 04:40:02;;;;;;;19.48;10.65;;;;;;;4.70;93.46;96822.06;4999878;28;20029;-81
2021/03/18 04:42:27;;;;;;;21.13;11.25;;;;;;;4.72;93.97;96831.63;4998751;28;20405;-81
2021/03/18 04:44:53;;;;;;;20.67;10.85;;;;;;;4.70;94.03;96838.81;4999542;28;20040;-82
2021/03/18 04:47:19;;;;;;;20.13;10.90;;;;;;;4.73;95.25;96843.09;4999332;28;20049;-82
2021/03/18 04:49:46;;;;;;;19.63;11.70;;;;;;;4.71;95.84;96837.00;4999360;28;20023;-82
2021/03/18 04:52:16;;;;;;;20.42;12.07;;;;;;;4.76;95.70;96843.78;5015440;28;20164;-81
2021/03/18 04:54:42;;;;;;;22.10;13.18;;;;;;;4.65;94.92;96848.75;5015852;28;20455;-82
2021/03/18 04:57:09;;;;;;;26.55;15.85;;;;;;;4.62;95.93;96856.84;5015730;28;20025;-83
2021/03/18 04:59:36;;;;;;;23.35;14.18;;;;;;;4.64;95.01;96852.34;4999527;28;20405;-81
2021/03/18 05:02:02;;;;;;;24.23;14.32;;;;;;;4.63;96.74;96853.28;4999226;28;20025;-81
2021/03/18 05:04:30;;;;;;;22.65;13.75;;;;;;;4.58;96.54;96850.00;4999180;28;20147;-81
2021/03/18 05:06:56;;;;;;;23.25;12.13;;;;;;;4.62;94.80;96856.00;4999180;28;20095;-81
2021/03/18 05:09:25;;;;;;;15.32;9.73;;;;;;;4.70;93.73;96867.94;4996012;28;20446;-75
2021/03/18 05:11:54;;;;;;;17.23;9.43;;;;;;;4.75;93.13;96873.00;5012113;28;20473;-75
2021/03/18 05:14:21;;;;;;;17.13;9.80;;;;;;;4.69;92.75;96875.94;5012345;28;20033;-75
2021/03/18 05:16:48;;;;;;;23.60;13.70;;;;;;;4.65;92.89;96877.88;5009250;28;20133;-77
2021/03/18 05:19:14;;;;;;;33.97;17.83;;;;;;;4.68;92.93;96875.09;5012110;28;20417;-76
2021/03/18 05:21:43;;;;;;;42.13;22.42;;;;;;;4.77;92.64;96882.56;4995612;28;20017;-77
2021/03/18 05:24:10;;;;;;;34.63;18.08;;;;;;;4.74;91.76;96885.38;5012055;28;20029;-77
2021/03/18 05:26:35;;;;;;;21.83;12.85;;;;;;;4.74;92.14;96893.31;5012604;28;20512;-77
2021/03/18 05:29:01;;;;;;;20.25;12.73;;;;;;;4.71;91.84;96904.06;4993050;28;20057;-77
2021/03/18 05:31:27;;;;;;;20.38;11.35;;;;;;;4.68;91.60;96892.75;5012803;28;20053;-84
2021/03/18 05:33:53;;;;;;;41.65;19.08;;;;;;;4.76;92.19;96907.38;4996554;28;20059;-85
2021/03/18 05:36:19;;;;;;;34.72;16.75;;;;;;;4.70;93.17;96894.44;4996233;28;20513;-84
2021/03/18 05:38:45;;;;;;;26.92;14.80;;;;;;;4.79;94.81;96907.22;5012880;28;20072;-84
2021/03/18 05:41:11;;;;;;;27.55;15.35;;;;;;;4.75;94.88;96905.63;4996376;28;20104;-84
2021/03/18 05:43:37;;;;;;;28.27;16.33;;;;;;;4.83;94.85;96902.59;5012816;28;20029;-85
2021/03/18 05:46:03;;;;;;;71.72;33.78;;;;;;;4.91;94.82;96917.19;4996341;28;20061;-85
2021/03/18 05:48:29;;;;;;;43.78;24.73;;;;;;;4.85;91.99;96917.50;5013223;28;20034;-85
2021/03/18 05:50:56;;;;;;;26.30;16.13;;;;;;;4.80;92.63;96924.81;4996588;28;20029;-84
2021/03/18 05:53:23;;;;;;;28.55;16.25;;;;;;;4.82;92.82;96933.56;4996118;28;20095;-85
2021/03/18 05:55:52;;;;;;;17.33;10.65;;;;;;;4.83;91.89;96932.59;4996090;28;20508;-84
2021/03/18 05:58:21;;;;;;;33.83;18.75;;;;;;;4.89;91.74;96945.53;4995979;28;20037;-84
2021/03/18 06:00:47;;;;;;;30.63;18.02;;;;;;;4.97;89.72;96942.53;5011973;28;20456;-84
2021/03/18 06:03:12;;;;;;;26.17;15.65;;;;;;;5.09;87.38;96935.75;5012447;28;20028;-84
2021/03/18 06:05:38;;;;;;;30.90;16.33;;;;;;;5.32;86.86;96938.94;4996431;28;20033;-83
2021/03/18 06:08:04;;;;;;;20.77;13.27;;;;;;;5.32;85.75;96938.94;4996152;28;20033;-84
2021/03/18 06:10:29;;;;;;;21.23;13.40;;;;;;;5.39;85.39;96940.34;4996024;28;20060;-85
2021/03/18 06:12:56;;;;;;;25.40;15.00;;;;;;;5.41;86.94;96943.78;4996236;28;20374;-84
2021/03/18 06:15:23;;;;;;;23.25;13.52;;;;;;;5.40;86.65;96950.03;4996269;28;20025;-84
2021/03/18 06:17:49;;;;;;;20.50;12.55;;;;;;;5.43;86.39;96954.31;5012236;28;20048;-84
2021/03/18 06:20:17;;;;;;;26.58;14.90;;;;;;;5.41;85.78;96954.38;4996397;28;20533;-84
2021/03/18 06:22:45;;;;;;;22.10;13.82;;;;;;;5.23;83.98;96949.19;4995204;28;20083;-84
2021/03/18 06:25:22;;;;;;;27.45;15.55;;;;;;;5.27;87.70;96967.50;5012612;28;20502;-85
2021/03/18 06:27:48;;;;;;;17.30;11.23;;;;;;;5.18;85.11;96959.16;5013045;28;20569;-83
2021/03/18 06:30:14;;;;;;;20.13;12.20;;;;;;;5.14;85.45;96966.38;4997061;28;20437;-84
2021/03/18 06:32:40;;;;;;;13.75;9.10;;;;;;;5.06;86.98;96968.56;5019172;28;20064;-83
2021/03/18 06:35:06;;;;;;;20.67;12.70;;;;;;;5.07;88.37;96970.31;4996407;28;20398;-84
2021/03/18 06:37:42;;;;;;;28.15;13.60;;;;;;;5.08;86.25;96976.44;4997426;28;20477;-83
2021/03/18 06:40:13;;;;;;;35.08;16.05;;;;;;;5.06;87.07;96973.88;4997173;28;20543;-84
2021/03/18 06:42:41;;;;;;;40.22;19.42;;;;;;;5.12;87.29;96970.06;5012477;28;20041;-83
2021/03/18 06:45:15;;;;;;;19.60;11.23;;;;;;;5.20;86.78;96987.28;4997167;28;20098;-84
2021/03/18 06:47:52;;;;;;;14.70;9.13;;;;;;;5.14;85.79;96986.72;4996632;28;20336;-83
2021/03/18 06:50:26;;;;;;;14.50;9.40;;;;;;;5.27;86.97;96990.50;5012810;28;20068;-84
2021/03/18 06:52:52;;;;;;;13.52;7.43;;;;;;;5.24;85.15;96988.84;4996290;28;20481;-84
2021/03/18 06:55:46;;;;;;;12.05;8.35;;;;;;;5.38;87.03;96990.84;4997107;28;20033;-84
2021/03/18 06:58:13;;;;;;;11.82;8.18;;;;;;;5.51;84.78;96997.22;4995359;28;20033;-84
2021/03/18 07:00:39;;;;;;;10.52;6.90;;;;;;;5.67;83.66;96982.22;5012019;28;20465;-83
2021/03/18 07:03:10;;;;;;;13.02;8.10;;;;;;;5.79;84.62;96984.25;5011616;28;20032;-85
2021/03/18 07:05:40;;;;;;;12.48;7.80;;;;;;;5.97;84.83;96985.09;4994680;28;20497;-84
2021/03/18 07:08:06;;;;;;;12.88;7.13;;;;;;;6.17;82.13;96998.19;4995744;28;20033;-85
2021/03/18 07:10:36;;;;;;;13.32;7.30;;;;;;;6.14;80.75;96986.88;4997570;28;20037;-84
2021/03/18 07:13:22;;;;;;;13.25;7.20;;;;;;;6.20;79.90;97002.47;5012466;28;20413;-84
2021/03/18 07:15:49;;;;;;;12.40;7.57;;;;;;;6.10;80.77;96995.94;5031252;28;20029;-84
2021/03/18 07:18:15;;;;;;;12.18;7.68;;;;;;;6.28;81.73;97001.13;4996969;28;20390;-84
2021/03/18 07:21:13;;;;;;;9.50;6.60;;;;;;;6.49;81.09;97002.63;5013112;28;20036;-86
2021/03/18 07:23:47;;;;;;;11.38;6.00;;;;;;;6.55;78.68;97009.41;4997482;28;20563;-85
2021/03/18 07:26:19;;;;;;;11.05;7.10;;;;;;;6.74;79.54;97010.09;4997067;28;20124;-85
2021/03/18 07:29:08;;;;;;;13.52;8.93;;;;;;;6.75;80.07;97000.31;4996755;28;20040;-85
2021/03/18 07:31:33;;;;;;;21.42;13.68;;;;;;;6.90;80.32;97005.66;5012829;28;20036;-85
2021/03/18 07:33:59;;;;;;;18.90;9.88;;;;;;;7.03;80.73;97006.69;4997769;28;20029;-84
2021/03/18 07:36:25;;;;;;;15.77;10.05;;;;;;;7.09;79.31;97013.44;4998333;28;20496;-85
2021/03/18 07:38:50;;;;;;;14.05;9.15;;;;;;;7.49;77.67;97001.38;4997409;28;20036;-84
2021/03/18 07:41:17;;;;;;;14.45;8.50;;;;;;;7.30;77.90;97014.00;4996458;28;20045;-84
2021/03/18 07:43:44;;;;;;;19.42;8.93;;;;;;;7.38;78.94;97020.59;4996594;28;20107;-84
2021/03/18 07:46:15;;;;;;;12.18;8.50;;;;;;;6.98;80.69;97024.66;4995633;28;20074;-84
2021/03/18 07:48:42;;;;;;;13.57;8.93;;;;;;;6.74;81.89;97010.09;4996110;28;20032;-83
2021/03/18 07:51:07;;;;;;;12.30;8.75;;;;;;;6.83;82.70;97009.59;5012323;28;20059;-85
2021/03/18 07:53:33;;;;;;;10.25;6.88;;;;;;;6.65;79.92;97015.91;4996138;28;20730;-83
2021/03/18 07:55:59;;;;;;;13.75;7.85;;;;;;;6.63;81.68;97028.44;4995862;28;20029;-83
2021/03/18 07:58:44;;;;;;;13.82;8.20;;;;;;;6.70;81.61;97026.31;4997332;28;20041;-85
2021/03/18 08:01:30;;;;;;;16.90;8.60;;;;;;;6.85;79.48;97028.13;5013664;28;20109;-85
2021/03/18 08:04:04;;;;;;;30.83;18.02;;;;;;;6.83;80.67;97024.69;4998111;28;20057;-84
2021/03/18 08:06:39;;;;;;;29.15;16.80;;;;;;;6.95;81.67;97029.34;5012732;28;20068;-85
2021/03/18 08:09:08;;;;;;;23.65;11.10;;;;;;;6.94;79.97;97025.81;5011281;28;20029;-84
2021/03/18 08:11:35;;;;;;;20.40;12.60;;;;;;;6.92;80.11;97019.69;5029606;28;20064;-85
2021/03/18 08:14:19;;;;;;;20.23;13.07;;;;;;;6.89;79.39;97027.84;4996210;28;20389;-84
2021/03/18 08:16:44;;;;;;;20.88;10.75;;;;;;;6.91;80.34;97025.97;4988820;28;20432;-84
2021/03/18 08:19:11;;;;;;;15.10;10.82;;;;;;;7.08;77.96;97028.53;4998462;28;20034;-85
2021/03/18 08:21:41;;;;;;;16.38;10.43;;;;;;;7.11;77.77;97024.84;4998352;28;20034;-84
2021/03/18 08:24:16;;;;;;;18.20;12.02;;;;;;;7.28;76.42;97031.88;5015206;28;20037;-84
2021/03/18 08:27:05;;;;;;;15.07;9.65;;;;;;;7.39;75.37;97034.75;5007059;28;20559;-85
2021/03/18 08:29:37;;;;;;;16.02;10.98;;;;;;;7.56;75.51;97043.50;4990603;28;20041;-85
2021/03/18 08:32:09;;;;;;;20.77;12.38;;;;;;;7.81;76.03;97032.28;5014685;28;20154;-85
2021/03/18 08:34:49;;;;;;;19.50;10.23;;;;;;;7.79;76.02;97039.47;5014251;28;20061;-84
2021/03/18 08:37:33;;;;;;;11.23;7.43;;;;;;;7.91;72.76;97036.09;5014715;28;20044;-84
2021/03/18 08:40:00;;;;;;;10.90;7.68;;;;;;;8.34;70.98;97036.19;4992481;28;20501;-84
2021/03/18 08:42:31;;;;;;;16.20;9.10;;;;;;;8.46;72.62;97040.78;5014550;28;20060;-84
2021/03/18 08:45:04;;;;;;;13.73;8.85;;;;;;;8.63;69.74;97037.94;5014192;28;20065;-84
2021/03/18 08:47:40;;;;;;;13.80;9.15;;;;;;;8.77;70.48;97051.25;4998172;28;20114;-84
2021/03/18 08:50:08;;;;;;;10.85;7.75;;;;;;;8.63;69.29;97043.25;4998676;28;20037;-83
2021/03/18 08:52:45;;;;;;;14.40;9.52;;;;;;;8.90;70.33;97046.00;4999390;28;20133;-83
2021/03/18 08:55:12;;;;;;;12.80;8.90;;;;;;;9.53;67.40;97041.00;5014683;28;20049;-84
2021/03/18 08:57:40;;;;;;;12.75;8.75;;;;;;;10.34;66.85;97035.41;4999411;28;20112;-84
2021/03/18 09:00:21;;;;;;;12.10;8.00;;;;;;;11.09;60.20;97044.34;5001794;28;20509;-85
2021/03/18 09:02:47;;;;;;;12.25;7.70;;;;;;;11.12;59.36;97030.75;4998257;28;20485;-84
2021/03/18 09:05:20;;;;;;;14.00;8.23;;;;;;;10.36;60.34;97015.75;4981062;28;20041;-84
2021/03/18 09:08:00;;;;;;;15.27;8.23;;;;;;;11.02;59.41;97043.06;4982453;28;20042;-85
2021/03/18 09:10:33;;;;;;;10.48;7.55;;;;;;;10.86;58.96;97047.81;4976088;28;20057;-84
2021/03/18 09:13:04;;;;;;;11.15;8.48;;;;;;;10.66;60.71;97056.41;4968739;28;20030;-85
2021/03/18 09:15:45;;;;;;;11.45;7.90;;;;;;;10.32;60.46;97063.22;4987659;28;20046;-84
2021/03/18 09:18:22;;;;;;;14.07;8.30;;;;;;;10.32;63.00;97069.44;4978208;28;20034;-84
2021/03/18 09:20:50;;;;;;;17.45;11.60;;;;;;;9.82;66.31;97079.97;4999023;28;20113;-87
2021/03/18 09:23:18;;;;;;;16.52;11.00;;;;;;;8.97;67.18;97063.34;4957621;28;20038;-85
2021/03/18 09:25:46;;;;;;;17.67;11.27;;;;;;;8.57;70.03;97064.97;4957803;28;20070;-84
2021/03/18 09:28:13;;;;;;;18.02;11.98;;;;;;;8.11;71.49;97051.75;4957787;28;20038;-83
2021/03/18 09:30:48;;;;;;;17.95;12.68;;;;;;;8.09;74.54;97063.47;4957711;28;20057;-83
2021/03/18 09:33:32;;;;;;;19.83;13.07;;;;;;;7.80;74.88;97062.50;4957561;28;20514;-85
2021/03/18 09:36:18;;;;;;;21.10;13.07;;;;;;;7.82;73.93;97065.06;4971058;28;20203;-83
2021/03/18 09:39:09;;;;;;;21.33;13.10;;;;;;;7.99;75.48;97064.94;4997527;28;20063;-83
2021/03/18 09:41:46;;;;;;;28.83;16.52;;;;;;;8.03;76.72;97062.00;4997012;28;20124;-83
2021/03/18 09:44:17;;;;;;;27.80;17.35;;;;;;;8.06;78.81;97063.59;4997601;28;20025;-84
2021/03/18 09:46:48;;;;;;;29.25;16.73;;;;;;;8.03;78.13;97069.13;5013279;28;20168;-84
2021/03/18 09:49:14;;;;;;;20.42;12.85;;;;;;;7.68;77.75;97073.88;4997682;28;20030;-85
2021/03/18 09:51:42;;;;;;;18.30;12.68;;;;;;;7.98;76.66;97066.75;4997657;28;20052;-84
2021/03/18 09:54:10;;;;;;;20.70;12.75;;;;;;;8.18;77.56;97071.72;4997722;28;20091;-84
2021/03/18 09:56:41;;;;;;;15.38;9.48;;;;;;;8.13;77.85;97068.50;4996706;28;20037;-82
2021/03/18 09:59:08;;;;;;;14.73;9.75;;;;;;;8.52;74.80;97077.72;5013961;28;20382;-84
2021/03/18 10:01:34;;;;;;;12.38;8.23;;;;;;;8.30;71.29;97066.66;5014461;28;20029;-83
2021/03/18 10:04:04;;;;;;;13.23;8.90;;;;;;;7.97;72.38;97080.13;4997146;28;20087;-84
2021/03/18 10:06:34;;;;;;;12.98;8.18;;;;;;;8.52;70.28;97077.72;4997281;28;20029;-83
2021/03/18 10:09:28;;;;;;;14.88;9.27;;;;;;;9.43;71.52;97088.78;5012586;28;20029;-83
2021/03/18 10:11:54;;;;;;;10.82;7.72;;;;;;;10.39;70.42;97088.59;4997335;28;20524;-84
2021/03/18 10:14:21;;;;;;;11.52;8.35;;;;;;;12.09;62.17;97074.41;5013874;28;20025;-84
2021/03/18 10:16:47;;;;;;;10.68;8.00;;;;;;;14.25;55.28;97090.16;5013017;28;20116;-84
2021/03/18 10:19:14;;;;;;;10.55;7.53;;;;;;;15.08;49.64;97093.75;4997184;28;20108;-84
2021/03/18 10:21:40;;;;;;;11.18;7.85;;;;;;;14.87;49.96;97092.91;4996924;28;20033;-85
2021/03/18 10:24:07;;;;;;;10.88;8.15;;;;;;;15.13;47.89;97096.91;4996544;28;20036;-82
2021/03/18 10:26:32;;;;;;;12.80;9.07;;;;;;;16.17;47.52;97097.41;4996711;28;20056;-84
2021/03/18 10:29:03;;;;;;;12.32;8.75;;;;;;;16.41;45.10;97099.69;5013575;28;20119;-84
2021/03/18 10:31:29;;;;;;;10.68;8.48;;;;;;;15.80;45.04;97093.66;4997032;28;20036;-84
2021/03/18 10:33:55;;;;;;;17.25;10.73;;;;;;;15.98;45.08;97090.13;4996153;28;20489;-83
2021/03/18 10:36:38;;;;;;;12.23;9.07;;;;;;;16.10;47.73;97098.94;5013455;28;20099;-84
2021/03/18 10:39:07;;;;;;;11.93;8.20;;;;;;;14.82;49.03;97095.16;5012746;28;20033;-84
2021/03/18 10:41:33;;;;;;;8.93;6.85;;;;;;;13.38;52.17;97080.41;4996509;28;20029;-84
2021/03/18 10:43:59;;;;;;;11.43;7.20;;;;;;;12.22;55.40;97080.56;4997419;28;20037;-83
2021/03/18 10:46:30;;;;;;;10.30;7.40;;;;;;;11.87;57.25;97095.78;5013864;28;20045;-84
2021/03/18 10:48:57;;;;;;;11.77;6.78;;;;;;;11.33;58.57;97080.06;5013215;28;20437;-84
2021/03/18 10:51:23;;;;;;;9.93;6.38;;;;;;;11.41;59.59;97090.22;4996480;28;20111;-83
2021/03/18 10:53:52;;;;;;;12.18;8.25;;;;;;;10.87;58.36;97092.34;5012777;28;20466;-84
2021/03/18 10:56:26;;;;;;;9.02;6.57;;;;;;;10.36;60.80;97077.25;4989044;28;20025;-84
2021/03/18 10:58:52;;;;;;;11.77;8.00;;;;;;;10.10;62.85;97087.00;4996341;28;20029;-83
2021/03/18 11:01:23;;;;;;;13.38;7.93;;;;;;;10.01;66.12;97084.94;5012897;28;20068;-83
2021/03/18 11:03:49;;;;;;;8.88;6.20;;;;;;;10.05;64.82;97065.94;4997182;28;20481;-85
2021/03/18 11:06:22;;;;;;;9.05;5.85;;;;;;;10.11;62.31;97076.22;4997206;28;20033;-83
2021/03/18 11:08:53;;;;;;;10.73;7.20;;;;;;;9.82;64.90;97077.28;4997205;28;20037;-83
2021/03/18 11:11:21;;;;;;;7.45;5.88;;;;;;;9.35;65.40;97074.22;5021989;28;20029;-83
2021/03/18 11:13:47;;;;;;;7.47;5.60;;;;;;;9.54;62.54;97077.38;4997282;28;20025;-83
2021/03/18 11:16:24;;;;;;;8.45;6.45;;;;;;;9.69;62.40;97084.44;4996526;28;20095;-83
2021/03/18 11:18:56;;;;;;;13.18;7.93;;;;;;;10.04;64.52;97069.56;4997633;28;20024;-84
2021/03/18 11:21:26;;;;;;;13.77;9.02;;;;;;;10.38;64.46;97069.97;4989485;28;20408;-84
2021/03/18 11:24:16;;;;;;;10.55;7.47;;;;;;;10.21;62.31;97065.78;5013446;28;20033;-84
2021/03/18 11:27:03;;;;;;;9.48;7.55;;;;;;;10.11;64.09;97070.88;5014180;28;20167;-84
2021/03/18 11:29:33;;;;;;;15.32;9.32;;;;;;;10.29;66.87;97064.28;5006083;28;20405;-83
2021/03/18 11:32:03;;;;;;;8.07;5.80;;;;;;;10.39;64.68;97069.00;4997292;28;20080;-83
2021/03/18 11:34:34;;;;;;;8.10;5.28;;;;;;;10.20;62.42;97069.41;5013899;28;20488;-83
2021/03/18 11:37:04;;;;;;;14.73;9.60;;;;;;;10.47;63.55;97072.00;4997102;28;20064;-83
2021/03/18 11:39:30;;;;;;;16.20;8.82;;;;;;;10.26;66.31;97069.84;5013331;28;20028;-84
2021/03/18 11:41:57;;;;;;;11.32;7.85;;;;;;;9.80;67.41;97071.19;5013021;28;20512;-83